Time;durP1;ratioP1;P1;durP2;ratioP2;P2;SDS_P1;SDS_P2;PMS_P1;PMS_P2;Temp;Humidity;BMP_temperature;BMP_pressure;BME280_temperature;BME280_humidity;BME280_pressure;Samples;Min_cycle;Max_cycle;Signal;HPM_P1;HPM_P2
2021/03/20 00:01:26;;;;;;;62.63;43.90;;;;;;;-0.76;80.35;99275.81;123843;1102;64908;-81
2021/03/20 00:03:53;;;;;;;69.37;47.47;;;;;;;-0.75;80.40;99283.61;123541;1102;64908;-81
2021/03/20 00:06:31;;;;;;;60.65;44.10;;;;;;;-0.75;79.88;99283.61;123847;1102;65084;-81
2021/03/20 00:08:59;;;;;;;73.00;50.35;;;;;;;-0.72;79.74;99280.94;123442;1102;65349;-80
2021/03/20 00:11:27;;;;;;;54.90;37.03;;;;;;;-0.74;80.04;99285.36;123484;1102;64905;-81
2021/03/20 00:13:58;;;;;;;56.65;37.85;;;;;;;-0.77;80.18;99290.62;123489;1102;64898;-80
2021/03/20 00:16:25;;;;;;;53.90;36.30;;;;;;;-0.80;79.89;99285.44;123846;1102;64914;-81
2021/03/20 00:18:51;;;;;;;55.20;38.73;;;;;;;-0.83;79.83;99293.34;123416;1102;64889;-81
2021/03/20 00:21:19;;;;;;;52.70;36.70;;;;;;;-0.83;80.01;99297.72;123528;1105;65055;-82
2021/03/20 00:23:46;;;;;;;47.87;32.60;;;;;;;-0.83;80.25;99293.34;123456;1102;64918;-81
2021/03/20 00:26:13;;;;;;;40.10;27.87;;;;;;;-0.84;79.69;99293.36;123848;1102;64927;-82
2021/03/20 00:28:40;;;;;;;40.55;27.35;;;;;;;-0.89;79.27;99302.16;123453;1102;64891;-81
2021/03/20 00:31:11;;;;;;;40.60;27.13;;;;;;;-0.92;80.19;99296.98;123460;1103;64891;-81
2021/03/20 00:33:43;;;;;;;36.30;26.37;;;;;;;-0.91;79.53;99306.55;123841;1102;64905;-81
2021/03/20 00:36:10;;;;;;;34.20;24.20;;;;;;;;;;123833;1102;64913;-81
2021/03/20 00:38:40;;;;;;;37.07;23.63;;;;;;;-0.99;80.68;99308.42;123415;1102;64910;-81
2021/03/20 00:41:08;;;;;;;32.90;23.57;;;;;;;-1.05;80.46;99307.63;123408;1102;64861;-81
2021/03/20 00:43:36;;;;;;;33.13;23.90;;;;;;;-1.10;81.16;99312.95;123380;1102;64860;-80
2021/03/20 00:46:04;;;;;;;34.90;24.50;;;;;;;-1.14;81.43;99314.73;123426;1102;64991;-81
2021/03/20 00:48:34;;;;;;;33.87;24.30;;;;;;;-1.15;81.38;99306.92;123873;1102;64905;-81
2021/03/20 00:51:04;;;;;;;30.45;22.45;;;;;;;-1.19;80.65;99306.08;123842;1102;64910;-81
2021/03/20 00:53:31;;;;;;;29.33;22.90;;;;;;;-1.26;81.54;99312.31;123344;1105;64965;-81
2021/03/20 00:55:59;;;;;;;30.83;22.80;;;;;;;-1.31;81.44;99313.27;123438;1102;64889;-81
2021/03/20 00:58:35;;;;;;;35.37;25.30;;;;;;;-1.31;81.16;99315.87;123438;1102;64917;-81
2021/03/20 01:01:14;;;;;;;32.13;23.53;;;;;;;-1.32;81.32;99322.83;123874;1102;64930;-81
2021/03/20 01:03:41;;;;;;;27.27;19.57;;;;;;;-1.35;80.80;99312.42;123444;1102;64870;-81
2021/03/20 01:06:12;;;;;;;25.37;19.37;;;;;;;-1.39;80.89;99331.67;123385;1105;65004;-81
2021/03/20 01:08:38;;;;;;;22.05;16.20;;;;;;;-1.40;80.75;99333.39;123441;1102;64978;-82
2021/03/20 01:11:06;;;;;;;20.77;15.63;;;;;;;-1.40;80.37;99333.39;123407;1102;64894;-81
2021/03/20 01:13:33;;;;;;;22.33;16.83;;;;;;;-1.41;79.88;99329.06;123446;1105;64969;-81
2021/03/20 01:16:00;;;;;;;20.13;15.53;;;;;;;-1.46;79.85;99330.86;123800;1102;64889;-81
2021/03/20 01:18:27;;;;;;;21.40;16.70;;;;;;;-1.45;79.79;99340.45;123839;1102;64885;-82
2021/03/20 01:20:53;;;;;;;20.70;16.93;;;;;;;-1.44;80.38;99330.86;123438;1102;64985;-81
2021/03/20 01:23:20;;;;;;;20.23;14.63;;;;;;;-1.46;80.23;99328.25;123452;1102;64915;-81
2021/03/20 01:25:47;;;;;;;16.83;13.77;;;;;;;-1.45;80.25;99329.11;123816;1101;64891;-81
2021/03/20 01:28:13;;;;;;;18.60;13.03;;;;;;;-1.47;79.30;99328.30;123409;1102;64899;-81
2021/03/20 01:30:43;;;;;;;18.63;13.83;;;;;;;-1.50;79.81;99337.03;123412;1105;64966;-81
2021/03/20 01:33:10;;;;;;;15.72;12.78;;;;;;;-1.51;79.92;99334.43;123390;1105;64914;-81
2021/03/20 01:35:36;;;;;;;19.20;14.40;;;;;;;-1.54;79.57;99335.33;123422;1102;64995;-81
2021/03/20 01:38:04;;;;;;;18.33;13.53;;;;;;;-1.58;79.41;99339.74;123447;1102;65020;-82
2021/03/20 01:40:41;;;;;;;23.63;15.40;;;;;;;-1.59;79.72;99337.13;123441;1102;64930;-82
2021/03/20 01:43:09;;;;;;;21.80;15.27;;;;;;;-1.60;79.07;99335.42;123815;1102;64901;-81
2021/03/20 01:45:36;;;;;;;20.63;15.37;;;;;;;-1.61;79.24;99346.73;123412;1102;65033;-80
2021/03/20 01:48:17;;;;;;;22.70;16.10;;;;;;;-1.63;80.22;99348.53;123427;1102;64917;-80
2021/03/20 01:50:49;;;;;;;20.13;15.87;;;;;;;-1.67;79.87;99355.52;123467;1102;64911;-81
2021/03/20 01:53:34;;;;;;;21.20;15.80;;;;;;;-1.71;80.06;99348.61;123410;1102;65269;-81
2021/03/20 01:56:04;;;;;;;21.87;16.73;;;;;;;-1.75;80.38;99356.50;123376;1105;64889;-80
2021/03/20 01:58:31;;;;;;;23.07;18.03;;;;;;;-1.79;81.62;99368.70;123823;1102;64905;-81
2021/03/20 02:01:08;;;;;;;20.73;15.87;;;;;;;-1.84;81.78;99375.77;123419;1102;64891;-81
2021/03/20 02:03:35;;;;;;;20.93;16.57;;;;;;;-1.91;81.24;99364.50;123401;1102;64978;-81
2021/03/20 02:06:03;;;;;;;21.50;16.77;;;;;;;-1.96;81.79;99370.66;123446;1102;65061;-81
2021/03/20 02:08:31;;;;;;;20.43;15.83;;;;;;;-2.04;82.10;99366.36;123517;1102;64991;-81
2021/03/20 02:11:08;;;;;;;16.77;13.67;;;;;;;-2.11;81.28;99371.66;123434;1105;66158;-80
2021/03/20 02:13:46;;;;;;;20.07;13.37;;;;;;;-2.22;81.64;99374.38;123863;1102;64835;-80
2021/03/20 02:16:24;;;;;;;12.60;11.20;;;;;;;-2.29;81.37;99378.80;123830;1102;64924;-81
2021/03/20 02:19:16;;;;;;;14.13;11.00;;;;;;;-2.35;82.43;99381.45;123769;1101;64911;-81
2021/03/20 02:22:07;;;;;;;16.33;12.53;;;;;;;-2.43;82.36;99391.09;123808;1102;64885;-80
2021/03/20 02:24:48;;;;;;;15.40;12.40;;;;;;;-2.45;81.87;99391.12;123769;1102;65026;-81
2021/03/20 02:27:48;;;;;;;17.07;12.27;;;;;;;-2.47;82.03;99389.40;123461;1102;64918;-80
2021/03/20 02:30:25;;;;;;;;;;;;;;;-2.48;82.02;99385.89;123870;1102;65344;-81
2021/03/20 02:33:11;;;;;;;16.15;14.25;;;;;;;-2.48;81.40;99385.89;123442;1102;64892;-81
2021/03/20 02:36:06;;;;;;;16.60;13.00;;;;;;;-2.45;81.66;99398.95;123519;1101;64945;-81
2021/03/20 02:38:51;;;;;;;16.40;12.40;;;;;;;-2.44;81.25;99398.05;123796;1102;65030;-80
2021/03/20 02:41:23;;;;;;;14.97;11.10;;;;;;;-2.45;81.21;99398.05;123398;1102;64947;-80
2021/03/20 02:44:11;;;;;;;14.27;11.73;;;;;;;-2.46;80.99;99398.95;123392;1101;64910;-81
2021/03/20 02:47:07;;;;;;;14.60;10.73;;;;;;;-2.49;80.84;99401.58;123418;1102;64905;-81
2021/03/20 02:49:44;;;;;;;15.93;11.53;;;;;;;-2.53;81.07;99408.55;123386;1105;64943;-82
2021/03/20 02:52:39;;;;;;;14.83;11.97;;;;;;;-2.54;80.38;99413.80;123377;1102;64909;-80
2021/03/20 02:55:24;;;;;;;15.87;12.00;;;;;;;-2.55;80.89;99409.47;123497;1102;64905;-81
2021/03/20 02:57:54;;;;;;;13.90;10.60;;;;;;;-2.56;80.52;99413.80;123388;1105;65005;-81
2021/03/20 03:00:47;;;;;;;14.10;11.47;;;;;;;-2.56;80.01;99412.94;123484;1102;64905;-83
2021/03/20 03:03:15;;;;;;;11.27;9.33;;;;;;;-2.55;79.69;99412.94;123407;1102;64838;-81
2021/03/20 03:05:56;;;;;;;13.93;9.50;;;;;;;-2.62;79.74;99412.99;123815;1102;64985;-81
2021/03/20 03:08:31;;;;;;;14.47;10.03;;;;;;;-2.68;80.12;99424.34;123433;1102;64882;-80
2021/03/20 03:11:12;;;;;;;15.50;10.10;;;;;;;-2.68;80.12;99426.95;123468;1102;64876;-83
2021/03/20 03:13:45;;;;;;;13.77;10.70;;;;;;;-2.69;79.63;99441.70;123427;1102;65323;-82
2021/03/20 03:16:18;;;;;;;15.47;10.37;;;;;;;-2.68;79.46;99433.02;123416;1102;64882;-84
2021/03/20 03:18:50;;;;;;;16.10;9.97;;;;;;;-2.63;79.56;99433.00;123878;1102;64975;-81
2021/03/20 03:21:19;;;;;;;16.40;10.90;;;;;;;-2.62;80.08;99444.30;123833;1101;64910;-81
2021/03/20 03:23:46;;;;;;;11.53;8.45;;;;;;;-2.62;78.74;99442.55;123851;1102;64969;-80
2021/03/20 03:26:22;;;;;;;11.23;7.63;;;;;;;-2.67;78.27;99449.54;123436;1102;65301;-81
2021/03/20 03:28:58;;;;;;;11.33;6.93;;;;;;;-2.72;78.07;99446.95;123569;1102;64923;-81
2021/03/20 03:31:40;;;;;;;12.00;6.80;;;;;;;-2.77;76.76;99459.15;123436;1102;65038;-81
2021/03/20 03:34:17;;;;;;;8.17;5.00;;;;;;;-2.82;75.80;99457.45;123463;1102;64917;-82
2021/03/20 03:37:08;;;;;;;10.03;6.57;;;;;;;-2.87;76.32;99458.36;123365;1102;64886;-80
2021/03/20 03:39:52;;;;;;;9.10;5.00;;;;;;;-2.92;75.48;99456.65;123453;1103;64896;-80
2021/03/20 03:42:21;;;;;;;8.33;4.57;;;;;;;-2.92;75.41;99478.38;123413;1105;65234;-80
2021/03/20 03:44:50;;;;;;;10.53;5.23;;;;;;;-2.96;75.34;99475.78;123429;1102;64889;-81
2021/03/20 03:47:23;;;;;;;7.50;4.83;;;;;;;-2.96;76.16;99476.64;123388;1105;65316;-80
2021/03/20 03:49:52;;;;;;;11.07;6.17;;;;;;;-2.96;75.94;99479.25;123414;1102;64837;-81
2021/03/20 03:52:19;;;;;;;13.43;5.65;;;;;;;-2.94;75.86;99482.72;123385;1105;64943;-81
2021/03/20 03:54:45;;;;;;;8.87;5.80;;;;;;;-2.94;75.46;99481.86;123418;1102;65299;-81
2021/03/20 03:57:37;;;;;;;10.53;6.92;;;;;;;-2.96;74.98;99489.67;123458;1102;64950;-81
2021/03/20 04:00:47;;;;;;;8.90;5.97;;;;;;;-3.00;75.31;99497.51;123442;1102;64808;-81
2021/03/20 04:03:53;;;;;;;13.40;6.30;;;;;;;-3.02;75.30;99502.75;123457;1102;64927;-81
2021/03/20 04:06:53;;;;;;;14.27;7.40;;;;;;;-3.05;74.64;99505.37;123827;1102;65266;-81
2021/03/20 04:09:33;;;;;;;13.47;7.27;;;;;;;-3.06;74.50;99510.58;123413;1102;64905;-81
2021/03/20 04:12:33;;;;;;;13.05;7.90;;;;;;;-3.05;74.50;99517.52;123449;1102;65148;-81
2021/03/20 04:15:04;;;;;;;;;;;;;;;-3.05;75.53;99522.73;123471;1102;64888;-82
2021/03/20 04:17:56;;;;;;;14.87;8.37;;;;;;;-3.03;75.27;99516.64;123758;1102;64825;-82
2021/03/20 04:20:33;;;;;;;16.13;8.63;;;;;;;-3.03;75.36;99523.60;123411;1102;64882;-81
2021/03/20 04:23:09;;;;;;;12.67;7.47;;;;;;;-3.03;74.47;99519.25;123817;1102;64905;-80
2021/03/20 04:26:06;;;;;;;14.43;7.43;;;;;;;-3.06;74.61;99528.83;123468;1102;64896;-81
2021/03/20 04:28:53;;;;;;;14.37;7.80;;;;;;;-3.18;73.57;99535.83;123406;1102;65011;-81
2021/03/20 04:31:29;;;;;;;13.53;7.17;;;;;;;-3.27;73.91;99537.58;123432;1102;64889;-81
2021/03/20 04:34:10;;;;;;;13.10;7.05;;;;;;;-3.33;73.93;99544.54;123884;1102;65304;-81
2021/03/20 04:36:44;;;;;;;15.05;8.20;;;;;;;-3.35;73.94;99550.63;123400;1102;64905;-81
2021/03/20 04:39:14;;;;;;;13.77;7.43;;;;;;;-3.40;73.51;99557.58;123379;1102;65049;-81
2021/03/20 04:41:42;;;;;;;16.60;8.40;;;;;;;-3.45;73.11;99567.14;123452;1102;65368;-81
2021/03/20 04:44:09;;;;;;;15.70;8.20;;;;;;;-3.51;72.64;99562.81;123783;1102;64989;-82
2021/03/20 04:46:37;;;;;;;17.75;8.85;;;;;;;-3.56;72.74;99565.41;123492;1102;64927;-81
2021/03/20 04:49:27;;;;;;;16.57;8.00;;;;;;;-3.58;72.21;99566.28;123391;1105;64908;-80
2021/03/20 04:52:20;;;;;;;17.05;8.05;;;;;;;-3.62;72.43;99574.98;123476;1102;64966;-80
2021/03/20 04:54:47;;;;;;;14.60;7.20;;;;;;;-3.67;72.08;99574.98;123425;1105;64888;-81
2021/03/20 04:57:33;;;;;;;11.80;7.20;;;;;;;-3.70;71.93;99572.38;123518;1102;64912;-80
2021/03/20 05:00:44;;;;;;;16.07;7.37;;;;;;;-3.72;72.78;99576.71;123419;1102;65014;-80
2021/03/20 05:03:21;;;;;;;15.90;7.77;;;;;;;-3.78;71.52;99587.14;123256;1102;64905;-80
2021/03/20 05:05:49;;;;;;;16.20;7.70;;;;;;;-3.79;72.12;99583.67;123421;1102;65040;-81
2021/03/20 05:08:55;;;;;;;14.20;7.33;;;;;;;-3.80;71.22;99589.73;123411;1104;64949;-81
2021/03/20 05:11:30;;;;;;;17.00;8.90;;;;;;;-3.77;72.06;99589.72;123414;1102;64911;-81
2021/03/20 05:14:12;;;;;;;17.47;8.93;;;;;;;-3.70;71.33;99600.16;123496;1105;64915;-81
2021/03/20 05:16:51;;;;;;;31.90;13.30;;;;;;;-3.66;71.80;99604.48;123409;1102;64918;-80
2021/03/20 05:19:20;;;;;;;24.75;10.85;;;;;;;-3.68;71.54;99606.25;123774;1102;65349;-80
2021/03/20 05:21:54;;;;;;;23.70;10.53;;;;;;;-3.67;71.51;99614.05;123488;1102;64937;-80
2021/03/20 05:24:38;;;;;;;34.80;16.03;;;;;;;-3.64;70.76;99615.78;123387;1102;64943;-80
2021/03/20 05:27:08;;;;;;;26.77;11.73;;;;;;;-3.60;71.89;99620.14;123436;1102;64895;-81
2021/03/20 05:29:34;;;;;;;18.60;10.00;;;;;;;-3.52;70.92;99617.54;123465;1102;65365;-81
2021/03/20 05:32:04;;;;;;;18.80;8.80;;;;;;;-3.45;71.51;99620.14;123366;1102;64857;-80
2021/03/20 05:34:37;;;;;;;27.60;12.75;;;;;;;-3.41;70.81;99619.26;123417;1102;64843;-81
2021/03/20 05:37:05;;;;;;;24.37;12.87;;;;;;;-3.43;70.43;99623.59;123433;1102;64888;-81
2021/03/20 05:39:32;;;;;;;25.40;11.93;;;;;;;-3.40;70.59;99625.33;123436;1102;64950;-80
2021/03/20 05:42:23;;;;;;;24.40;13.07;;;;;;;-3.37;70.27;99623.61;123432;1102;64908;-80
2021/03/20 05:45:10;;;;;;;20.40;9.73;;;;;;;-3.34;69.84;99626.21;123775;1102;64994;-81
2021/03/20 05:47:57;;;;;;;18.00;8.90;;;;;;;-3.33;70.03;99627.07;123408;1102;65320;-82
2021/03/20 05:50:55;;;;;;;16.80;8.95;;;;;;;-3.24;70.07;99632.27;123446;1102;64905;-82
2021/03/20 05:53:43;;;;;;;17.33;9.67;;;;;;;-3.11;70.24;99630.52;123831;1102;64905;-83
2021/03/20 05:56:22;;;;;;;15.07;9.47;;;;;;;-3.03;69.92;99640.94;123436;1102;65375;-81
2021/03/20 05:59:32;;;;;;;16.27;10.10;;;;;;;-2.97;70.17;99633.13;123356;1105;64895;-81
2021/03/20 06:02:20;;;;;;;19.20;9.83;;;;;;;-2.88;70.30;99636.55;123465;1102;64921;-81
2021/03/20 06:05:20;;;;;;;20.67;9.43;;;;;;;-2.83;69.48;99636.55;123331;1102;64932;-81
2021/03/20 06:08:08;;;;;;;17.45;9.90;;;;;;;-2.73;69.98;99640.88;123367;1102;64901;-81
2021/03/20 06:10:54;;;;;;;15.87;8.77;;;;;;;-2.69;69.48;99647.80;123380;1102;64937;-81
2021/03/20 06:13:40;;;;;;;22.03;11.00;;;;;;;-2.64;69.68;99650.41;123394;1102;64847;-81
2021/03/20 06:16:22;;;;;;;21.80;12.37;;;;;;;-2.62;68.96;99642.59;123371;1102;64892;-81
2021/03/20 06:19:00;;;;;;;16.67;11.10;;;;;;;-2.60;69.46;99654.75;123426;1102;64915;-81
2021/03/20 06:21:27;;;;;;;20.35;11.60;;;;;;;-2.61;68.90;99659.96;123409;1102;64898;-82
2021/03/20 06:24:02;;;;;;;20.67;10.40;;;;;;;-2.57;69.34;99657.34;123409;1102;64831;-80
2021/03/20 06:26:34;;;;;;;19.90;10.00;;;;;;;-2.60;68.27;99666.94;123405;1102;64860;-81
2021/03/20 06:29:05;;;;;;;20.17;10.03;;;;;;;-2.66;69.04;99670.41;123410;1102;65315;-81
2021/03/20 06:31:45;;;;;;;16.20;9.10;;;;;;;-2.71;69.04;99678.27;123406;1102;64888;-82
2021/03/20 06:34:26;;;;;;;17.20;9.55;;;;;;;-2.74;69.02;99683.50;123840;1102;64917;-80
2021/03/20 06:37:09;;;;;;;18.93;9.90;;;;;;;-2.82;68.80;99679.14;123722;1102;64838;-82
2021/03/20 06:39:45;;;;;;;17.50;9.87;;;;;;;-2.85;69.37;99685.23;123476;1102;65014;-81
2021/03/20 06:42:27;;;;;;;18.03;11.13;;;;;;;-2.77;69.56;99686.08;123788;1102;64940;-81
2021/03/20 06:45:03;;;;;;;17.97;10.57;;;;;;;-2.67;68.79;99684.33;123812;1102;64984;-81
2021/03/20 06:47:33;;;;;;;17.67;9.67;;;;;;;-2.53;69.13;99686.89;123769;1102;64888;-81
2021/03/20 06:50:01;;;;;;;19.50;9.83;;;;;;;-2.34;68.28;99682.48;123502;1102;64917;-81
2021/03/20 06:52:31;;;;;;;15.83;9.80;;;;;;;-2.12;68.92;99681.53;123444;1102;64918;-81
2021/03/20 06:55:05;;;;;;;16.67;10.17;;;;;;;-1.94;67.99;99683.19;123865;1102;64905;-81
2021/03/20 06:57:31;;;;;;;20.03;10.73;;;;;;;-1.78;68.53;99683.97;123453;1102;64988;-82
2021/03/20 07:00:24;;;;;;;18.07;10.10;;;;;;;-1.67;68.21;99687.38;123423;1102;65288;-81
2021/03/20 07:03:45;;;;;;;19.70;9.90;;;;;;;-1.48;67.84;99685.50;123803;1102;64950;-80
2021/03/20 07:06:30;;;;;;;14.93;9.63;;;;;;;-1.46;67.55;99693.34;123576;1102;64921;-81
2021/03/20 07:09:00;;;;;;;16.23;9.50;;;;;;;-1.42;66.80;99695.04;123407;1103;65449;-81
2021/03/20 07:11:40;;;;;;;17.00;9.20;;;;;;;-1.40;66.70;99698.52;123462;1102;64943;-81
2021/03/20 07:14:10;;;;;;;20.37;9.37;;;;;;;-1.38;67.57;99696.77;123486;1102;65475;-81
2021/03/20 07:17:05;;;;;;;18.43;10.07;;;;;;;-1.27;66.73;99701.91;123377;1105;64974;-82
2021/03/20 07:19:31;;;;;;;14.77;8.20;;;;;;;-1.30;65.73;99701.94;123369;1106;64934;-81
2021/03/20 07:21:58;;;;;;;15.63;9.43;;;;;;;-1.39;65.86;99706.36;123796;1102;64917;-83
2021/03/20 07:24:38;;;;;;;15.20;9.57;;;;;;;-1.36;66.46;99706.34;123803;1102;64908;-82
2021/03/20 07:27:21;;;;;;;16.23;9.80;;;;;;;-1.28;66.40;99710.65;123380;1102;65029;-81
2021/03/20 07:29:49;;;;;;;16.00;9.23;;;;;;;-1.13;67.05;99707.92;123402;1102;64869;-81
2021/03/20 07:32:32;;;;;;;16.23;9.50;;;;;;;-1.04;65.95;99706.97;123809;1102;65065;-80
2021/03/20 07:35:20;;;;;;;18.83;9.17;;;;;;;-1.13;65.70;99702.69;123416;1105;64927;-81
2021/03/20 07:37:49;;;;;;;16.80;9.40;;;;;;;-1.25;65.20;99708.00;123398;1102;65374;-81
2021/03/20 07:40:33;;;;;;;15.10;9.00;;;;;;;-1.35;65.88;99702.83;123372;1102;64882;-82
2021/03/20 07:43:14;;;;;;;16.35;10.30;;;;;;;-1.25;66.39;99708.00;123422;1102;64902;-82
2021/03/20 07:45:42;;;;;;;16.63;10.00;;;;;;;-1.11;65.98;99711.37;123378;1105;65101;-81
2021/03/20 07:48:24;;;;;;;19.10;10.57;;;;;;;-1.10;64.73;99718.36;123429;1102;64921;-80
2021/03/20 07:51:14;;;;;;;16.07;9.23;;;;;;;-1.07;65.42;99723.55;123402;1102;64939;-81
2021/03/20 07:53:50;;;;;;;18.13;10.37;;;;;;;-0.90;65.77;99720.78;123395;1102;64860;-81
2021/03/20 07:56:36;;;;;;;15.07;9.47;;;;;;;-0.90;65.41;99724.27;123439;1106;64972;-80
2021/03/20 07:59:20;;;;;;;14.10;8.90;;;;;;;-0.76;64.22;99723.30;123868;1101;64979;-80
2021/03/20 08:01:59;;;;;;;15.27;9.43;;;;;;;-0.63;64.40;99721.41;123770;1102;64907;-80
2021/03/20 08:04:58;;;;;;;17.23;9.17;;;;;;;-0.48;65.14;99722.11;123436;1102;64994;-81
2021/03/20 08:07:34;;;;;;;14.27;8.00;;;;;;;-0.34;62.13;99728.95;123834;1102;64892;-81
2021/03/20 08:10:25;;;;;;;12.53;8.27;;;;;;;-0.40;63.77;99727.27;123804;1102;64889;-80
2021/03/20 08:13:13;;;;;;;12.80;7.77;;;;;;;-0.44;63.03;99725.59;123479;1102;64979;-81
2021/03/20 08:15:43;;;;;;;15.10;8.27;;;;;;;-0.43;63.12;99731.69;123865;1102;65016;-80
2021/03/20 08:18:33;;;;;;;13.72;9.25;;;;;;;-0.34;63.32;99728.95;123526;1102;65015;-81
2021/03/20 08:21:15;;;;;;;14.43;7.78;;;;;;;-0.29;61.91;99729.77;123494;1102;64988;-81
2021/03/20 08:24:16;;;;;;;13.77;8.63;;;;;;;-0.38;62.81;99732.50;123931;1102;64905;-79
2021/03/20 08:27:03;;;;;;;11.60;7.80;;;;;;;-0.40;62.89;99722.03;123749;1102;64918;-81
2021/03/20 08:29:52;;;;;;;11.47;7.10;;;;;;;-0.26;61.83;99730.62;123871;1102;64962;-81
2021/03/20 08:32:43;;;;;;;14.10;8.17;;;;;;;-0.16;63.04;99731.36;123760;1102;64905;-81
2021/03/20 08:35:27;;;;;;;11.90;7.10;;;;;;;0.06;62.38;99728.52;123877;1101;64915;-81
2021/03/20 08:38:21;;;;;;;13.35;8.40;;;;;;;0.25;61.82;99723.89;123803;1102;64911;-80
2021/03/20 08:41:07;;;;;;;14.00;8.40;;;;;;;0.38;61.29;99731.56;123767;1102;65009;-82
2021/03/20 08:44:00;;;;;;;11.37;7.17;;;;;;;0.37;61.34;99728.95;123808;1102;65016;-81
2021/03/20 08:46:53;;;;;;;11.23;7.83;;;;;;;0.67;60.31;99725.03;123470;1102;65092;-81
2021/03/20 08:49:54;;;;;;;14.63;8.07;;;;;;;0.96;61.18;99724.58;123818;1102;64905;-81
2021/03/20 08:52:25;;;;;;;13.80;8.47;;;;;;;1.28;60.72;99724.03;123869;1102;64902;-81
2021/03/20 08:55:00;;;;;;;13.17;8.73;;;;;;;1.36;59.91;99725.66;123840;1101;64899;-81
2021/03/20 08:57:46;;;;;;;9.27;5.97;;;;;;;1.28;57.74;99731.05;123788;1102;64946;-81
2021/03/20 09:00:17;;;;;;;10.00;6.00;;;;;;;1.18;57.00;99719.83;123737;1102;64885;-82
2021/03/20 09:02:45;;;;;;;13.70;7.47;;;;;;;1.35;57.83;99730.05;123803;1102;64956;-81
2021/03/20 09:05:24;;;;;;;10.50;6.03;;;;;;;1.33;55.10;99726.58;123516;1102;64889;-82
2021/03/20 09:07:55;;;;;;;10.80;5.87;;;;;;;1.08;55.43;99734.89;123777;1102;65029;-82
2021/03/20 09:10:31;;;;;;;9.17;5.17;;;;;;;0.79;55.07;99730.11;123475;1102;64962;-80
2021/03/20 09:13:04;;;;;;;8.93;5.30;;;;;;;0.64;56.64;99732.95;123718;1102;64908;-82
2021/03/20 09:15:33;;;;;;;12.37;6.87;;;;;;;0.76;57.08;99732.75;123491;1102;65017;-81
2021/03/20 09:18:04;;;;;;;11.13;6.33;;;;;;;0.84;56.95;99736.16;123857;1102;65359;-82
2021/03/20 09:20:36;;;;;;;9.27;5.47;;;;;;;1.03;54.94;99743.73;123461;1102;65174;-80
2021/03/20 09:23:05;;;;;;;9.80;5.70;;;;;;;1.08;56.51;99742.77;123813;1102;65013;-81
2021/03/20 09:25:40;;;;;;;10.63;5.60;;;;;;;1.19;56.36;99739.95;123866;1102;64888;-81
2021/03/20 09:28:10;;;;;;;10.50;6.23;;;;;;;1.40;55.34;99741.34;123847;1102;64942;-81
2021/03/20 09:30:44;;;;;;;7.50;5.53;;;;;;;1.39;54.46;99746.61;123822;1102;65322;-81
2021/03/20 09:33:19;;;;;;;9.83;5.00;;;;;;;1.20;53.07;99753.95;123772;1102;64881;-81
2021/03/20 09:35:53;;;;;;;7.15;4.50;;;;;;;1.04;52.76;99748.08;123808;1102;64934;-81
2021/03/20 09:38:34;;;;;;;7.60;4.50;;;;;;;1.01;53.15;99751.62;123797;1102;65345;-80
2021/03/20 09:41:13;;;;;;;9.70;5.10;;;;;;;1.05;52.19;99749.80;123780;1102;64861;-81
2021/03/20 09:43:45;;;;;;;10.87;6.13;;;;;;;1.29;53.54;99749.41;123828;1102;64898;-82
2021/03/20 09:46:39;;;;;;;7.25;5.10;;;;;;;1.72;52.01;99743.38;123821;1102;65090;-80
2021/03/20 09:49:07;;;;;;;9.90;6.00;;;;;;;2.05;53.45;99738.34;123854;1102;64888;-81
2021/03/20 09:51:59;;;;;;;11.10;6.97;;;;;;;2.15;51.85;99742.52;123806;1102;64927;-81
2021/03/20 09:54:30;;;;;;;8.13;4.90;;;;;;;1.86;48.27;99750.13;123839;1102;64892;-81
2021/03/20 09:57:05;;;;;;;9.80;5.45;;;;;;;1.79;51.42;99752.03;123826;1102;64902;-81
2021/03/20 09:59:33;;;;;;;8.53;5.80;;;;;;;2.11;51.84;99750.52;123791;1102;64882;-81
2021/03/20 10:02:23;;;;;;;7.77;5.17;;;;;;;2.40;49.84;99753.41;123875;1102;64940;-81
2021/03/20 10:05:03;;;;;;;12.63;5.80;;;;;;;2.47;50.39;99750.63;123765;1102;64885;-81
2021/03/20 10:07:32;;;;;;;8.17;4.00;;;;;;;2.52;49.00;99756.66;123496;1102;65071;-81
2021/03/20 10:10:04;;;;;;;8.70;4.80;;;;;;;2.53;48.99;99750.52;123475;1102;64946;-81
2021/03/20 10:12:36;;;;;;;8.03;5.03;;;;;;;2.54;49.09;99750.46;123751;1102;65346;-81
2021/03/20 10:15:13;;;;;;;9.97;5.30;;;;;;;2.72;49.32;99749.19;123821;1102;65010;-81
2021/03/20 10:18:04;;;;;;;8.70;5.37;;;;;;;2.92;49.50;99755.74;123813;1102;64934;-81
2021/03/20 10:20:43;;;;;;;8.30;5.97;;;;;;;3.16;50.22;99747.28;123792;1102;64940;-81
2021/03/20 10:23:47;;;;;;;9.20;5.20;;;;;;;3.48;49.96;99746.45;123791;1102;64905;-82
2021/03/20 10:26:26;;;;;;;8.45;5.15;;;;;;;3.74;49.91;99745.77;123825;1102;64933;-82
2021/03/20 10:29:00;;;;;;;13.80;7.23;;;;;;;3.84;50.27;99745.50;123864;1102;64981;-83
2021/03/20 10:31:29;;;;;;;9.17;5.60;;;;;;;3.69;47.61;99752.93;123796;1101;64921;-83
2021/03/20 10:34:11;;;;;;;8.30;5.70;;;;;;;3.43;47.90;99750.97;123526;1102;64949;-80
2021/03/20 10:36:43;;;;;;;8.07;5.20;;;;;;;3.18;47.48;99761.25;123474;1102;64963;-82
2021/03/20 10:39:32;;;;;;;7.47;4.33;;;;;;;2.94;46.34;99757.44;123809;1102;65036;-82
2021/03/20 10:42:16;;;;;;;8.63;4.30;;;;;;;2.46;44.83;99762.06;123474;1103;64997;-83
2021/03/20 10:44:46;;;;;;;6.67;3.80;;;;;;;2.19;46.24;99762.61;123467;1102;65001;-83
2021/03/20 10:47:12;;;;;;;10.53;5.17;;;;;;;2.18;46.30;99760.86;123881;1102;65342;-82
2021/03/20 10:49:52;;;;;;;7.55;4.80;;;;;;;2.31;45.90;99758.84;123821;1102;64911;-83
2021/03/20 10:52:21;;;;;;;15.47;8.00;;;;;;;2.48;47.05;99761.12;123802;1102;64899;-82
2021/03/20 10:54:52;;;;;;;8.90;5.77;;;;;;;2.56;47.42;99753.93;123830;1102;64888;-82
2021/03/20 10:57:22;;;;;;;8.60;5.80;;;;;;;2.82;46.42;99753.34;123463;1102;64944;-83
2021/03/20 10:59:50;;;;;;;10.57;5.97;;;;;;;2.92;46.59;99753.97;123827;1102;65016;-82
2021/03/20 11:02:27;;;;;;;7.40;4.57;;;;;;;3.02;46.88;99757.26;123486;1102;64885;-82
2021/03/20 11:05:10;;;;;;;7.90;4.73;;;;;;;2.96;46.73;99758.27;123759;1102;65039;-82
2021/03/20 11:07:48;;;;;;;9.67;5.53;;;;;;;2.82;46.47;99758.61;123806;1102;65053;-80
2021/03/20 11:10:24;;;;;;;8.20;5.40;;;;;;;2.76;46.70;99749.97;123486;1102;64927;-81
2021/03/20 11:12:53;;;;;;;7.55;4.60;;;;;;;2.59;44.43;99758.26;123867;1102;64934;-81
2021/03/20 11:15:27;;;;;;;7.90;3.83;;;;;;;2.34;45.82;99756.17;123460;1102;64902;-81
2021/03/20 11:17:57;;;;;;;7.77;4.43;;;;;;;2.35;45.65;99763.16;123482;1102;64982;-82
2021/03/20 11:20:29;;;;;;;;;;;;;;;2.46;45.25;99751.54;123827;1102;64909;-83
2021/03/20 11:22:56;;;;;;;5.73;3.90;;;;;;;2.67;46.07;99752.83;123486;1102;64914;-81
2021/03/20 11:25:31;;;;;;;6.30;3.90;;;;;;;2.98;46.92;99756.48;123810;1102;64908;-81
2021/03/20 11:28:03;;;;;;;6.77;4.07;;;;;;;3.23;46.38;99743.56;123801;1102;64892;-79
2021/03/20 11:30:50;;;;;;;5.83;4.00;;;;;;;3.54;45.74;99741.93;123788;1102;64987;-80
2021/03/20 11:33:24;;;;;;;7.03;4.10;;;;;;;3.60;46.19;99744.39;123811;1102;64952;-80
2021/03/20 11:35:54;;;;;;;7.87;4.40;;;;;;;3.46;44.40;99735.08;123762;1102;64939;-81
2021/03/20 11:38:22;;;;;;;7.73;4.90;;;;;;;3.24;42.65;99734.77;123462;1102;64927;-78
2021/03/20 11:41:12;;;;;;;8.90;4.70;;;;;;;2.89;43.21;99740.02;123818;1102;64911;-79
2021/03/20 11:43:50;;;;;;;9.80;5.00;;;;;;;2.64;43.74;99735.34;123744;1102;64910;-79
2021/03/20 11:46:25;;;;;;;12.05;5.95;;;;;;;2.51;43.46;99733.89;123809;1102;65249;-80
2021/03/20 11:48:58;;;;;;;8.95;5.80;;;;;;;2.37;43.10;99731.53;123406;1102;64911;-80
2021/03/20 11:51:35;;;;;;;7.90;4.73;;;;;;;2.23;42.46;99734.47;123827;1102;64934;-79
2021/03/20 11:54:22;;;;;;;6.95;4.65;;;;;;;2.05;43.09;99737.48;123778;1102;64885;-80
2021/03/20 11:57:20;;;;;;;8.00;4.80;;;;;;;2.13;43.15;99728.56;123797;1102;65025;-80
2021/03/20 11:59:47;;;;;;;10.27;5.67;;;;;;;2.28;43.97;99726.48;123767;1102;64959;-80
2021/03/20 12:02:23;;;;;;;10.53;5.47;;;;;;;2.33;43.04;99732.52;123785;1102;64911;-81
2021/03/20 12:05:05;;;;;;;10.13;6.07;;;;;;;2.23;43.17;99729.21;123872;1102;64910;-82
2021/03/20 12:07:35;;;;;;;8.83;5.57;;;;;;;2.07;42.88;99733.06;123516;1102;64891;-81